sensor_id;sensor_type;location;lat;lon;timestamp;temperature;humidity
37788;DHT22;23627;53.302;-6.362;2023-04-15T00:00:27;8.40;99.90
37788;DHT22;23627;53.302;-6.362;2023-04-15T00:02:56;8.40;99.90
37788;DHT22;23627;53.302;-6.362;2023-04-15T00:05:22;8.40;99.90
37788;DHT22;23627;53.302;-6.362;2023-04-15T00:07:47;8.30;99.90
37788;DHT22;23627;53.302;-6.362;2023-04-15T00:10:13;8.30;99.90
37788;DHT22;23627;53.302;-6.362;2023-04-15T00:12:39;8.30;99.90
37788;DHT22;23627;53.302;-6.362;2023-04-15T00:15:06;8.30;99.90
37788;DHT22;23627;53.302;-6.362;2023-04-15T00:17:33;8.30;99.90
37788;DHT22;23627;53.302;-6.362;2023-04-15T00:19:59;8.20;99.90
37788;DHT22;23627;53.302;-6.362;2023-04-15T00:22:28;8.20;99.90
37788;DHT22;23627;53.302;-6.362;2023-04-15T00:24:54;8.20;99.90
37788;DHT22;23627;53.302;-6.362;2023-04-15T00:27:19;8.20;99.90
37788;DHT22;23627;53.302;-6.362;2023-04-15T00:29:45;8.20;99.90
37788;DHT22;23627;53.302;-6.362;2023-04-15T00:32:11;8.20;99.90
37788;DHT22;23627;53.302;-6.362;2023-04-15T00:34:37;8.10;99.90
37788;DHT22;23627;53.302;-6.362;2023-04-15T00:37:02;8.10;99.90
37788;DHT22;23627;53.302;-6.362;2023-04-15T00:39:28;8.10;99.90
37788;DHT22;23627;53.302;-6.362;2023-04-15T00:41:54;8.10;99.90
37788;DHT22;23627;53.302;-6.362;2023-04-15T00:44:20;8.10;99.90
37788;DHT22;23627;53.302;-6.362;2023-04-15T00:46:46;8.10;99.90
37788;DHT22;23627;53.302;-6.362;2023-04-15T00:49:13;8.10;99.90
37788;DHT22;23627;53.302;-6.362;2023-04-15T00:51:38;8.00;99.90
37788;DHT22;23627;53.302;-6.362;2023-04-15T00:54:05;8.00;99.90
37788;DHT22;23627;53.302;-6.362;2023-04-15T00:56:36;8.00;99.90
37788;DHT22;23627;53.302;-6.362;2023-04-15T00:59:03;8.00;99.90
37788;DHT22;23627;53.302;-6.362;2023-04-15T01:01:32;8.00;99.90
37788;DHT22;23627;53.302;-6.362;2023-04-15T01:03:58;8.00;99.90
37788;DHT22;23627;53.302;-6.362;2023-04-15T01:06:23;8.00;99.90
37788;DHT22;23627;53.302;-6.362;2023-04-15T01:08:49;8.00;99.90
37788;DHT22;23627;53.302;-6.362;2023-04-15T01:11:16;7.90;99.90
37788;DHT22;23627;53.302;-6.362;2023-04-15T01:13:42;7.90;99.90
37788;DHT22;23627;53.302;-6.362;2023-04-15T01:16:08;7.90;99.90
37788;DHT22;23627;53.302;-6.362;2023-04-15T01:18:37;7.90;99.90
37788;DHT22;23627;53.302;-6.362;2023-04-15T01:21:04;7.90;99.90
37788;DHT22;23627;53.302;-6.362;2023-04-15T01:23:30;7.90;99.90
37788;DHT22;23627;53.302;-6.362;2023-04-15T01:25:57;7.90;99.90
37788;DHT22;23627;53.302;-6.362;2023-04-15T01:28:23;7.80;99.90
37788;DHT22;23627;53.302;-6.362;2023-04-15T01:30:50;7.80;99.90
37788;DHT22;23627;53.302;-6.362;2023-04-15T01:33:30;7.80;99.90
37788;DHT22;23627;53.302;-6.362;2023-04-15T01:35:56;7.80;99.90
37788;DHT22;23627;53.302;-6.362;2023-04-15T01:38:22;7.80;99.90
37788;DHT22;23627;53.302;-6.362;2023-04-15T01:40:47;7.80;99.90
37788;DHT22;23627;53.302;-6.362;2023-04-15T01:43:13;7.80;99.90
37788;DHT22;23627;53.302;-6.362;2023-04-15T01:45:39;7.80;99.90
37788;DHT22;23627;53.302;-6.362;2023-04-15T01:48:06;7.70;99.90
37788;DHT22;23627;53.302;-6.362;2023-04-15T01:50:32;7.70;99.90
37788;DHT22;23627;53.302;-6.362;2023-04-15T01:52:58;7.70;99.90
37788;DHT22;23627;53.302;-6.362;2023-04-15T01:55:24;7.70;99.90
37788;DHT22;23627;53.302;-6.362;2023-04-15T01:57:49;7.60;99.90
37788;DHT22;23627;53.302;-6.362;2023-04-15T02:00:16;7.60;99.90
37788;DHT22;23627;53.302;-6.362;2023-04-15T02:02:42;7.60;99.90
37788;DHT22;23627;53.302;-6.362;2023-04-15T02:05:08;7.60;99.90
37788;DHT22;23627;53.302;-6.362;2023-04-15T02:07:34;7.60;99.90
37788;DHT22;23627;53.302;-6.362;2023-04-15T02:10:00;7.60;99.90
37788;DHT22;23627;53.302;-6.362;2023-04-15T02:12:25;7.50;99.90
37788;DHT22;23627;53.302;-6.362;2023-04-15T02:14:51;7.50;99.90
37788;DHT22;23627;53.302;-6.362;2023-04-15T02:17:17;7.50;99.90
37788;DHT22;23627;53.302;-6.362;2023-04-15T02:19:43;7.50;99.90
37788;DHT22;23627;53.302;-6.362;2023-04-15T02:22:09;7.50;99.90
37788;DHT22;23627;53.302;-6.362;2023-04-15T02:24:37;7.40;99.90
37788;DHT22;23627;53.302;-6.362;2023-04-15T02:27:03;7.40;99.90
37788;DHT22;23627;53.302;-6.362;2023-04-15T02:29:30;7.40;99.90
37788;DHT22;23627;53.302;-6.362;2023-04-15T02:31:57;7.40;99.90
37788;DHT22;23627;53.302;-6.362;2023-04-15T02:34:22;7.40;99.90
37788;DHT22;23627;53.302;-6.362;2023-04-15T02:36:48;7.40;99.90
37788;DHT22;23627;53.302;-6.362;2023-04-15T02:39:14;7.40;99.90
37788;DHT22;23627;53.302;-6.362;2023-04-15T02:41:41;7.30;99.90
37788;DHT22;23627;53.302;-6.362;2023-04-15T02:44:08;7.30;99.90
37788;DHT22;23627;53.302;-6.362;2023-04-15T02:46:34;7.30;99.90
37788;DHT22;23627;53.302;-6.362;2023-04-15T02:49:00;7.30;99.90
37788;DHT22;23627;53.302;-6.362;2023-04-15T02:51:29;7.30;99.90
37788;DHT22;23627;53.302;-6.362;2023-04-15T02:53:58;7.30;99.90
37788;DHT22;23627;53.302;-6.362;2023-04-15T02:56:24;7.30;99.90
37788;DHT22;23627;53.302;-6.362;2023-04-15T02:58:50;7.30;99.90
37788;DHT22;23627;53.302;-6.362;2023-04-15T03:01:15;7.30;99.90
37788;DHT22;23627;53.302;-6.362;2023-04-15T03:03:41;7.30;99.90
37788;DHT22;23627;53.302;-6.362;2023-04-15T03:06:07;7.30;99.90
37788;DHT22;23627;53.302;-6.362;2023-04-15T03:08:33;7.20;99.90
37788;DHT22;23627;53.302;-6.362;2023-04-15T03:10:59;7.20;99.90
37788;DHT22;23627;53.302;-6.362;2023-04-15T03:13:26;7.20;99.90
37788;DHT22;23627;53.302;-6.362;2023-04-15T03:15:52;7.20;99.90
37788;DHT22;23627;53.302;-6.362;2023-04-15T03:18:18;7.20;99.90
37788;DHT22;23627;53.302;-6.362;2023-04-15T03:20:44;7.20;99.90
37788;DHT22;23627;53.302;-6.362;2023-04-15T03:23:10;7.20;99.90
37788;DHT22;23627;53.302;-6.362;2023-04-15T03:25:36;7.10;99.90
37788;DHT22;23627;53.302;-6.362;2023-04-15T03:28:02;7.10;99.90
37788;DHT22;23627;53.302;-6.362;2023-04-15T03:30:28;7.10;99.90
37788;DHT22;23627;53.302;-6.362;2023-04-15T03:32:53;7.10;99.90
37788;DHT22;23627;53.302;-6.362;2023-04-15T03:35:19;7.10;99.90
37788;DHT22;23627;53.302;-6.362;2023-04-15T03:37:45;7.10;99.90
37788;DHT22;23627;53.302;-6.362;2023-04-15T03:40:11;7.10;99.90
37788;DHT22;23627;53.302;-6.362;2023-04-15T03:42:37;7.10;99.90
37788;DHT22;23627;53.302;-6.362;2023-04-15T03:45:03;7.10;99.90
37788;DHT22;23627;53.302;-6.362;2023-04-15T03:47:29;7.00;99.90
37788;DHT22;23627;53.302;-6.362;2023-04-15T03:49:54;7.00;99.90
37788;DHT22;23627;53.302;-6.362;2023-04-15T03:52:20;7.00;99.90
37788;DHT22;23627;53.302;-6.362;2023-04-15T03:54:46;7.00;99.90
37788;DHT22;23627;53.302;-6.362;2023-04-15T03:57:12;7.00;99.90
37788;DHT22;23627;53.302;-6.362;2023-04-15T03:59:37;7.00;99.90
37788;DHT22;23627;53.302;-6.362;2023-04-15T04:02:03;7.00;99.90
37788;DHT22;23627;53.302;-6.362;2023-04-15T04:04:29;7.00;99.90
37788;DHT22;23627;53.302;-6.362;2023-04-15T04:06:54;6.90;99.90
37788;DHT22;23627;53.302;-6.362;2023-04-15T04:09:20;6.90;99.90
37788;DHT22;23627;53.302;-6.362;2023-04-15T04:11:46;6.90;99.90
37788;DHT22;23627;53.302;-6.362;2023-04-15T04:14:12;6.90;99.90
37788;DHT22;23627;53.302;-6.362;2023-04-15T04:16:37;6.90;99.90
37788;DHT22;23627;53.302;-6.362;2023-04-15T04:19:03;6.90;99.90
37788;DHT22;23627;53.302;-6.362;2023-04-15T04:21:29;6.90;99.90
37788;DHT22;23627;53.302;-6.362;2023-04-15T04:23:55;6.80;99.90
37788;DHT22;23627;53.302;-6.362;2023-04-15T04:26:21;6.80;99.90
37788;DHT22;23627;53.302;-6.362;2023-04-15T04:28:47;6.80;99.90
37788;DHT22;23627;53.302;-6.362;2023-04-15T04:31:13;6.80;99.90
37788;DHT22;23627;53.302;-6.362;2023-04-15T04:33:38;6.80;99.90
37788;DHT22;23627;53.302;-6.362;2023-04-15T04:36:04;6.70;99.90
37788;DHT22;23627;53.302;-6.362;2023-04-15T04:38:30;6.70;99.90
37788;DHT22;23627;53.302;-6.362;2023-04-15T04:40:56;6.70;99.90
37788;DHT22;23627;53.302;-6.362;2023-04-15T04:43:22;6.70;99.90
37788;DHT22;23627;53.302;-6.362;2023-04-15T04:45:48;6.70;99.90
37788;DHT22;23627;53.302;-6.362;2023-04-15T04:48:13;6.70;99.90
37788;DHT22;23627;53.302;-6.362;2023-04-15T04:50:39;6.70;99.90
37788;DHT22;23627;53.302;-6.362;2023-04-15T04:53:05;6.70;99.90
37788;DHT22;23627;53.302;-6.362;2023-04-15T04:55:31;6.60;99.90
37788;DHT22;23627;53.302;-6.362;2023-04-15T04:57:57;6.60;99.90
37788;DHT22;23627;53.302;-6.362;2023-04-15T05:00:22;6.60;99.90
37788;DHT22;23627;53.302;-6.362;2023-04-15T05:02:48;6.60;99.90
37788;DHT22;23627;53.302;-6.362;2023-04-15T05:05:14;6.60;99.90
37788;DHT22;23627;53.302;-6.362;2023-04-15T05:07:40;6.60;99.90
37788;DHT22;23627;53.302;-6.362;2023-04-15T05:10:07;6.60;99.90
37788;DHT22;23627;53.302;-6.362;2023-04-15T05:12:33;6.60;99.90
37788;DHT22;23627;53.302;-6.362;2023-04-15T05:14:58;6.60;99.90
37788;DHT22;23627;53.302;-6.362;2023-04-15T05:17:24;6.50;99.90
37788;DHT22;23627;53.302;-6.362;2023-04-15T05:19:50;6.50;99.90
37788;DHT22;23627;53.302;-6.362;2023-04-15T05:22:15;6.50;99.90
37788;DHT22;23627;53.302;-6.362;2023-04-15T05:24:41;6.50;99.90
37788;DHT22;23627;53.302;-6.362;2023-04-15T05:27:07;6.50;99.90
37788;DHT22;23627;53.302;-6.362;2023-04-15T05:29:34;6.50;99.90
37788;DHT22;23627;53.302;-6.362;2023-04-15T05:32:01;6.50;99.90
37788;DHT22;23627;53.302;-6.362;2023-04-15T05:34:26;6.50;99.90
37788;DHT22;23627;53.302;-6.362;2023-04-15T05:36:52;6.50;99.90
37788;DHT22;23627;53.302;-6.362;2023-04-15T05:39:18;6.60;99.90
37788;DHT22;23627;53.302;-6.362;2023-04-15T05:41:43;6.60;99.90
37788;DHT22;23627;53.302;-6.362;2023-04-15T05:44:09;6.60;99.90
37788;DHT22;23627;53.302;-6.362;2023-04-15T05:46:35;6.60;99.90
37788;DHT22;23627;53.302;-6.362;2023-04-15T05:49:01;6.60;99.90
37788;DHT22;23627;53.302;-6.362;2023-04-15T05:51:27;6.70;99.90
37788;DHT22;23627;53.302;-6.362;2023-04-15T05:53:52;6.70;99.90
37788;DHT22;23627;53.302;-6.362;2023-04-15T05:56:18;6.70;99.90
37788;DHT22;23627;53.302;-6.362;2023-04-15T05:58:45;6.70;99.90
37788;DHT22;23627;53.302;-6.362;2023-04-15T06:01:11;6.70;99.90
37788;DHT22;23627;53.302;-6.362;2023-04-15T06:03:37;6.70;99.90
37788;DHT22;23627;53.302;-6.362;2023-04-15T06:06:04;6.70;99.90
37788;DHT22;23627;53.302;-6.362;2023-04-15T06:08:30;6.80;99.90
37788;DHT22;23627;53.302;-6.362;2023-04-15T06:10:55;6.80;99.90
37788;DHT22;23627;53.302;-6.362;2023-04-15T06:13:22;6.80;99.90
37788;DHT22;23627;53.302;-6.362;2023-04-15T06:15:48;6.80;99.90
37788;DHT22;23627;53.302;-6.362;2023-04-15T06:18:14;6.80;99.90
37788;DHT22;23627;53.302;-6.362;2023-04-15T06:20:39;6.80;99.90
37788;DHT22;23627;53.302;-6.362;2023-04-15T06:23:06;6.80;99.90
37788;DHT22;23627;53.302;-6.362;2023-04-15T06:25:31;6.90;99.90
37788;DHT22;23627;53.302;-6.362;2023-04-15T06:27:57;6.90;99.90
37788;DHT22;23627;53.302;-6.362;2023-04-15T06:30:23;6.90;99.90
37788;DHT22;23627;53.302;-6.362;2023-04-15T06:32:48;6.90;99.90
37788;DHT22;23627;53.302;-6.362;2023-04-15T06:35:14;6.90;99.90
37788;DHT22;23627;53.302;-6.362;2023-04-15T06:37:40;6.90;99.90
37788;DHT22;23627;53.302;-6.362;2023-04-15T06:40:06;6.90;99.90
37788;DHT22;23627;53.302;-6.362;2023-04-15T06:42:33;6.90;99.90
37788;DHT22;23627;53.302;-6.362;2023-04-15T06:44:58;6.90;99.90
37788;DHT22;23627;53.302;-6.362;2023-04-15T06:47:24;6.90;99.90
37788;DHT22;23627;53.302;-6.362;2023-04-15T06:49:50;6.90;99.90
37788;DHT22;23627;53.302;-6.362;2023-04-15T06:52:16;6.90;99.90
37788;DHT22;23627;53.302;-6.362;2023-04-15T06:54:42;7.00;99.90
37788;DHT22;23627;53.302;-6.362;2023-04-15T06:57:08;7.00;99.90
37788;DHT22;23627;53.302;-6.362;2023-04-15T06:59:34;7.00;99.90
37788;DHT22;23627;53.302;-6.362;2023-04-15T07:02:00;7.00;99.90
37788;DHT22;23627;53.302;-6.362;2023-04-15T07:04:26;7.00;99.90
37788;DHT22;23627;53.302;-6.362;2023-04-15T07:06:52;7.00;99.90
37788;DHT22;23627;53.302;-6.362;2023-04-15T07:09:20;7.00;99.90
37788;DHT22;23627;53.302;-6.362;2023-04-15T07:11:46;7.00;99.90
37788;DHT22;23627;53.302;-6.362;2023-04-15T07:14:11;7.10;99.90
37788;DHT22;23627;53.302;-6.362;2023-04-15T07:16:37;7.10;99.90
37788;DHT22;23627;53.302;-6.362;2023-04-15T07:19:03;7.10;99.90
37788;DHT22;23627;53.302;-6.362;2023-04-15T07:21:29;7.10;99.90
37788;DHT22;23627;53.302;-6.362;2023-04-15T07:23:55;7.10;99.90
37788;DHT22;23627;53.302;-6.362;2023-04-15T07:26:21;7.20;99.90
37788;DHT22;23627;53.302;-6.362;2023-04-15T07:28:48;7.20;99.90
37788;DHT22;23627;53.302;-6.362;2023-04-15T07:31:14;7.20;99.90
37788;DHT22;23627;53.302;-6.362;2023-04-15T07:33:40;7.20;99.90
37788;DHT22;23627;53.302;-6.362;2023-04-15T07:36:06;7.20;99.90
37788;DHT22;23627;53.302;-6.362;2023-04-15T07:38:32;7.30;99.90
37788;DHT22;23627;53.302;-6.362;2023-04-15T07:40:58;7.30;99.90
37788;DHT22;23627;53.302;-6.362;2023-04-15T07:43:24;7.40;99.90
37788;DHT22;23627;53.302;-6.362;2023-04-15T07:45:49;7.50;99.90
37788;DHT22;23627;53.302;-6.362;2023-04-15T07:48:15;7.60;99.90
37788;DHT22;23627;53.302;-6.362;2023-04-15T07:50:41;7.80;99.90
37788;DHT22;23627;53.302;-6.362;2023-04-15T07:53:07;8.00;99.90
37788;DHT22;23627;53.302;-6.362;2023-04-15T07:55:35;8.30;99.90
37788;DHT22;23627;53.302;-6.362;2023-04-15T07:58:00;8.60;99.90
37788;DHT22;23627;53.302;-6.362;2023-04-15T08:00:26;9.00;99.90
37788;DHT22;23627;53.302;-6.362;2023-04-15T08:02:52;9.30;99.90
37788;DHT22;23627;53.302;-6.362;2023-04-15T08:05:18;9.70;99.90
37788;DHT22;23627;53.302;-6.362;2023-04-15T08:07:44;10.00;99.90
37788;DHT22;23627;53.302;-6.362;2023-04-15T08:10:11;10.40;99.90
37788;DHT22;23627;53.302;-6.362;2023-04-15T08:12:37;10.60;99.90
37788;DHT22;23627;53.302;-6.362;2023-04-15T08:15:03;10.90;99.90
37788;DHT22;23627;53.302;-6.362;2023-04-15T08:17:28;11.20;99.90
37788;DHT22;23627;53.302;-6.362;2023-04-15T08:19:54;11.40;99.90
37788;DHT22;23627;53.302;-6.362;2023-04-15T08:22:20;11.70;99.90
37788;DHT22;23627;53.302;-6.362;2023-04-15T08:24:46;12.00;99.90
37788;DHT22;23627;53.302;-6.362;2023-04-15T08:27:11;12.20;99.90
37788;DHT22;23627;53.302;-6.362;2023-04-15T08:29:38;12.40;99.90
37788;DHT22;23627;53.302;-6.362;2023-04-15T08:32:05;12.60;99.90
37788;DHT22;23627;53.302;-6.362;2023-04-15T08:34:31;12.80;99.90
37788;DHT22;23627;53.302;-6.362;2023-04-15T08:36:56;13.00;99.90
37788;DHT22;23627;53.302;-6.362;2023-04-15T08:39:22;13.20;99.90
37788;DHT22;23627;53.302;-6.362;2023-04-15T08:41:59;13.40;99.90
37788;DHT22;23627;53.302;-6.362;2023-04-15T08:44:28;13.60;99.90
37788;DHT22;23627;53.302;-6.362;2023-04-15T08:46:56;13.70;99.90
37788;DHT22;23627;53.302;-6.362;2023-04-15T08:49:26;13.90;99.90
37788;DHT22;23627;53.302;-6.362;2023-04-15T08:51:54;14.10;99.90
37788;DHT22;23627;53.302;-6.362;2023-04-15T08:54:21;14.20;99.90
37788;DHT22;23627;53.302;-6.362;2023-04-15T08:56:47;14.40;99.90
37788;DHT22;23627;53.302;-6.362;2023-04-15T08:59:14;14.50;99.90
37788;DHT22;23627;53.302;-6.362;2023-04-15T09:01:41;14.60;99.90
37788;DHT22;23627;53.302;-6.362;2023-04-15T09:04:07;14.70;99.90
37788;DHT22;23627;53.302;-6.362;2023-04-15T09:06:33;14.80;99.90
37788;DHT22;23627;53.302;-6.362;2023-04-15T09:08:59;14.90;99.90
37788;DHT22;23627;53.302;-6.362;2023-04-15T09:11:25;14.90;99.90
37788;DHT22;23627;53.302;-6.362;2023-04-15T09:13:51;15.00;99.90
37788;DHT22;23627;53.302;-6.362;2023-04-15T09:16:17;15.10;99.90
37788;DHT22;23627;53.302;-6.362;2023-04-15T09:18:43;15.10;99.90
37788;DHT22;23627;53.302;-6.362;2023-04-15T09:21:11;15.20;99.90
37788;DHT22;23627;53.302;-6.362;2023-04-15T09:23:40;15.20;99.90
37788;DHT22;23627;53.302;-6.362;2023-04-15T09:26:06;15.30;99.90
37788;DHT22;23627;53.302;-6.362;2023-04-15T09:28:33;15.30;99.90
37788;DHT22;23627;53.302;-6.362;2023-04-15T09:31:05;15.30;99.90
37788;DHT22;23627;53.302;-6.362;2023-04-15T09:33:31;15.40;99.90
37788;DHT22;23627;53.302;-6.362;2023-04-15T09:36:02;15.40;99.90
37788;DHT22;23627;53.302;-6.362;2023-04-15T09:38:29;15.40;99.90
37788;DHT22;23627;53.302;-6.362;2023-04-15T09:40:56;15.40;99.90
37788;DHT22;23627;53.302;-6.362;2023-04-15T09:43:22;15.40;99.90
37788;DHT22;23627;53.302;-6.362;2023-04-15T09:46:01;15.30;99.90
37788;DHT22;23627;53.302;-6.362;2023-04-15T09:48:27;15.40;99.90
37788;DHT22;23627;53.302;-6.362;2023-04-15T09:50:57;15.40;99.90
37788;DHT22;23627;53.302;-6.362;2023-04-15T09:53:24;15.50;99.90
37788;DHT22;23627;53.302;-6.362;2023-04-15T09:55:51;15.50;99.90
37788;DHT22;23627;53.302;-6.362;2023-04-15T09:58:25;15.50;99.90
37788;DHT22;23627;53.302;-6.362;2023-04-15T10:00:53;15.50;99.90
37788;DHT22;23627;53.302;-6.362;2023-04-15T10:03:24;15.40;99.90
37788;DHT22;23627;53.302;-6.362;2023-04-15T10:05:52;15.40;99.90
37788;DHT22;23627;53.302;-6.362;2023-04-15T10:08:20;15.40;99.90
37788;DHT22;23627;53.302;-6.362;2023-04-15T10:10:47;15.30;99.90
37788;DHT22;23627;53.302;-6.362;2023-04-15T10:13:17;15.30;99.90
37788;DHT22;23627;53.302;-6.362;2023-04-15T10:18:35;15.20;99.90
37788;DHT22;23627;53.302;-6.362;2023-04-15T10:21:03;15.20;99.90
37788;DHT22;23627;53.302;-6.362;2023-04-15T10:23:30;15.20;99.90
37788;DHT22;23627;53.302;-6.362;2023-04-15T10:25:57;15.20;99.90
37788;DHT22;23627;53.302;-6.362;2023-04-15T10:28:24;15.10;99.90
37788;DHT22;23627;53.302;-6.362;2023-04-15T10:30:51;15.10;99.90
37788;DHT22;23627;53.302;-6.362;2023-04-15T10:33:20;15.10;99.90
37788;DHT22;23627;53.302;-6.362;2023-04-15T10:35:48;15.10;99.90
37788;DHT22;23627;53.302;-6.362;2023-04-15T10:38:38;15.10;99.90
37788;DHT22;23627;53.302;-6.362;2023-04-15T10:41:20;15.20;99.90
37788;DHT22;23627;53.302;-6.362;2023-04-15T10:46:37;15.30;99.90
37788;DHT22;23627;53.302;-6.362;2023-04-15T10:49:23;15.30;99.90
37788;DHT22;23627;53.302;-6.362;2023-04-15T10:51:56;15.40;99.90
37788;DHT22;23627;53.302;-6.362;2023-04-15T10:59:33;15.30;99.90
37788;DHT22;23627;53.302;-6.362;2023-04-15T11:02:03;15.10;99.90
37788;DHT22;23627;53.302;-6.362;2023-04-15T11:04:54;15.20;99.90
37788;DHT22;23627;53.302;-6.362;2023-04-15T11:07:37;15.20;99.90
37788;DHT22;23627;53.302;-6.362;2023-04-15T11:12:39;15.30;99.90
37788;DHT22;23627;53.302;-6.362;2023-04-15T11:15:40;15.40;99.90
37788;DHT22;23627;53.302;-6.362;2023-04-15T11:18:20;15.60;99.90
37788;DHT22;23627;53.302;-6.362;2023-04-15T11:20:54;15.70;99.90
37788;DHT22;23627;53.302;-6.362;2023-04-15T11:23:33;15.90;99.90
37788;DHT22;23627;53.302;-6.362;2023-04-15T11:26:01;16.00;99.90
37788;DHT22;23627;53.302;-6.362;2023-04-15T11:28:28;16.20;99.90
37788;DHT22;23627;53.302;-6.362;2023-04-15T11:30:55;16.30;99.90
37788;DHT22;23627;53.302;-6.362;2023-04-15T11:33:22;16.40;99.90
37788;DHT22;23627;53.302;-6.362;2023-04-15T11:35:48;16.50;99.90
37788;DHT22;23627;53.302;-6.362;2023-04-15T11:38:15;16.50;99.90
37788;DHT22;23627;53.302;-6.362;2023-04-15T11:40:43;16.60;99.90
37788;DHT22;23627;53.302;-6.362;2023-04-15T11:43:14;16.60;99.90
37788;DHT22;23627;53.302;-6.362;2023-04-15T11:45:58;16.70;99.90
37788;DHT22;23627;53.302;-6.362;2023-04-15T11:48:45;16.70;99.90
37788;DHT22;23627;53.302;-6.362;2023-04-15T11:51:11;16.80;99.90
37788;DHT22;23627;53.302;-6.362;2023-04-15T11:53:49;16.90;99.90
37788;DHT22;23627;53.302;-6.362;2023-04-15T11:56:23;16.90;99.90
37788;DHT22;23627;53.302;-6.362;2023-04-15T11:58:53;17.00;99.90
37788;DHT22;23627;53.302;-6.362;2023-04-15T12:01:39;17.10;99.90
37788;DHT22;23627;53.302;-6.362;2023-04-15T12:04:14;17.10;99.90
37788;DHT22;23627;53.302;-6.362;2023-04-15T12:06:42;17.10;99.90
37788;DHT22;23627;53.302;-6.362;2023-04-15T12:11:43;17.20;99.90
37788;DHT22;23627;53.302;-6.362;2023-04-15T12:14:29;17.30;99.90
37788;DHT22;23627;53.302;-6.362;2023-04-15T12:17:03;17.40;99.90
37788;DHT22;23627;53.302;-6.362;2023-04-15T12:19:37;17.40;99.90
37788;DHT22;23627;53.302;-6.362;2023-04-15T12:22:07;17.50;99.90
37788;DHT22;23627;53.302;-6.362;2023-04-15T12:24:35;17.60;99.90
37788;DHT22;23627;53.302;-6.362;2023-04-15T12:27:03;17.70;99.90
37788;DHT22;23627;53.302;-6.362;2023-04-15T12:29:30;17.80;99.90
37788;DHT22;23627;53.302;-6.362;2023-04-15T12:32:07;17.80;99.90
37788;DHT22;23627;53.302;-6.362;2023-04-15T12:34:54;17.90;99.90
37788;DHT22;23627;53.302;-6.362;2023-04-15T12:37:20;17.90;99.90
37788;DHT22;23627;53.302;-6.362;2023-04-15T12:39:48;17.90;99.90
37788;DHT22;23627;53.302;-6.362;2023-04-15T12:42:15;17.90;99.90
37788;DHT22;23627;53.302;-6.362;2023-04-15T12:44:41;17.90;99.90
37788;DHT22;23627;53.302;-6.362;2023-04-15T12:47:08;17.90;99.90
37788;DHT22;23627;53.302;-6.362;2023-04-15T12:49:33;18.00;99.90
37788;DHT22;23627;53.302;-6.362;2023-04-15T12:52:00;18.00;99.90
37788;DHT22;23627;53.302;-6.362;2023-04-15T12:54:27;17.90;99.90
37788;DHT22;23627;53.302;-6.362;2023-04-15T12:56:53;17.90;99.90
37788;DHT22;23627;53.302;-6.362;2023-04-15T12:59:19;17.90;99.90
37788;DHT22;23627;53.302;-6.362;2023-04-15T13:01:47;17.90;99.90
37788;DHT22;23627;53.302;-6.362;2023-04-15T13:04:13;17.90;99.90
37788;DHT22;23627;53.302;-6.362;2023-04-15T13:06:39;17.90;99.90
37788;DHT22;23627;53.302;-6.362;2023-04-15T13:09:05;17.90;99.90
37788;DHT22;23627;53.302;-6.362;2023-04-15T13:11:31;17.90;99.90
37788;DHT22;23627;53.302;-6.362;2023-04-15T13:14:00;17.90;99.90
37788;DHT22;23627;53.302;-6.362;2023-04-15T13:16:26;17.90;99.90
37788;DHT22;23627;53.302;-6.362;2023-04-15T13:18:51;17.90;99.90
37788;DHT22;23627;53.302;-6.362;2023-04-15T13:21:18;18.00;99.90
37788;DHT22;23627;53.302;-6.362;2023-04-15T13:23:43;17.90;99.90
37788;DHT22;23627;53.302;-6.362;2023-04-15T13:26:10;18.00;99.90
37788;DHT22;23627;53.302;-6.362;2023-04-15T13:28:36;17.90;99.90
37788;DHT22;23627;53.302;-6.362;2023-04-15T13:31:01;17.90;99.90
37788;DHT22;23627;53.302;-6.362;2023-04-15T13:33:28;17.90;99.90
37788;DHT22;23627;53.302;-6.362;2023-04-15T13:35:53;17.90;99.90
37788;DHT22;23627;53.302;-6.362;2023-04-15T13:38:19;17.90;99.90
37788;DHT22;23627;53.302;-6.362;2023-04-15T13:40:45;17.80;99.90
37788;DHT22;23627;53.302;-6.362;2023-04-15T13:43:11;17.80;99.90
37788;DHT22;23627;53.302;-6.362;2023-04-15T13:45:36;17.80;99.90
37788;DHT22;23627;53.302;-6.362;2023-04-15T13:48:03;17.70;99.90
37788;DHT22;23627;53.302;-6.362;2023-04-15T13:50:28;17.70;99.90
37788;DHT22;23627;53.302;-6.362;2023-04-15T13:52:54;17.70;99.90
37788;DHT22;23627;53.302;-6.362;2023-04-15T13:55:20;17.70;99.90
37788;DHT22;23627;53.302;-6.362;2023-04-15T13:57:46;17.70;99.90
37788;DHT22;23627;53.302;-6.362;2023-04-15T14:00:12;17.70;99.90
37788;DHT22;23627;53.302;-6.362;2023-04-15T14:02:39;17.70;99.90
37788;DHT22;23627;53.302;-6.362;2023-04-15T14:05:05;17.70;99.90
37788;DHT22;23627;53.302;-6.362;2023-04-15T14:07:31;17.70;99.90
37788;DHT22;23627;53.302;-6.362;2023-04-15T14:09:57;17.70;99.90
37788;DHT22;23627;53.302;-6.362;2023-04-15T14:12:23;17.70;99.90
37788;DHT22;23627;53.302;-6.362;2023-04-15T14:14:48;17.70;99.90
37788;DHT22;23627;53.302;-6.362;2023-04-15T14:17:14;17.70;99.90
37788;DHT22;23627;53.302;-6.362;2023-04-15T14:19:40;17.70;99.90
37788;DHT22;23627;53.302;-6.362;2023-04-15T14:22:06;17.70;99.90
37788;DHT22;23627;53.302;-6.362;2023-04-15T14:24:31;17.70;99.90
37788;DHT22;23627;53.302;-6.362;2023-04-15T14:26:58;17.70;99.90
37788;DHT22;23627;53.302;-6.362;2023-04-15T14:29:24;17.70;99.90
37788;DHT22;23627;53.302;-6.362;2023-04-15T14:31:50;17.70;99.90
37788;DHT22;23627;53.302;-6.362;2023-04-15T14:34:16;17.60;99.90
37788;DHT22;23627;53.302;-6.362;2023-04-15T14:36:42;17.60;99.90
37788;DHT22;23627;53.302;-6.362;2023-04-15T14:39:09;17.50;99.90
37788;DHT22;23627;53.302;-6.362;2023-04-15T14:41:35;17.50;99.90
37788;DHT22;23627;53.302;-6.362;2023-04-15T14:44:01;17.50;99.90
37788;DHT22;23627;53.302;-6.362;2023-04-15T14:46:26;17.40;99.90
37788;DHT22;23627;53.302;-6.362;2023-04-15T14:48:52;17.40;99.90
37788;DHT22;23627;53.302;-6.362;2023-04-15T14:51:18;17.30;99.90
37788;DHT22;23627;53.302;-6.362;2023-04-15T14:53:44;17.30;99.90
37788;DHT22;23627;53.302;-6.362;2023-04-15T14:56:10;17.30;99.90
37788;DHT22;23627;53.302;-6.362;2023-04-15T14:58:36;17.30;99.90
37788;DHT22;23627;53.302;-6.362;2023-04-15T15:01:05;17.20;99.90
37788;DHT22;23627;53.302;-6.362;2023-04-15T15:03:31;17.20;99.90
37788;DHT22;23627;53.302;-6.362;2023-04-15T15:05:57;17.20;99.90
37788;DHT22;23627;53.302;-6.362;2023-04-15T15:08:23;17.20;99.90
37788;DHT22;23627;53.302;-6.362;2023-04-15T15:10:49;17.10;99.90
37788;DHT22;23627;53.302;-6.362;2023-04-15T15:13:15;17.10;99.90
37788;DHT22;23627;53.302;-6.362;2023-04-15T15:15:41;17.10;99.90
37788;DHT22;23627;53.302;-6.362;2023-04-15T15:18:07;17.10;99.90
37788;DHT22;23627;53.302;-6.362;2023-04-15T15:20:33;17.00;99.90
37788;DHT22;23627;53.302;-6.362;2023-04-15T15:23:00;16.90;99.90
37788;DHT22;23627;53.302;-6.362;2023-04-15T15:25:25;16.80;99.90
37788;DHT22;23627;53.302;-6.362;2023-04-15T15:27:51;16.80;99.90
37788;DHT22;23627;53.302;-6.362;2023-04-15T15:30:17;16.70;99.90
37788;DHT22;23627;53.302;-6.362;2023-04-15T15:32:43;16.70;99.90
37788;DHT22;23627;53.302;-6.362;2023-04-15T15:35:09;16.60;99.90
37788;DHT22;23627;53.302;-6.362;2023-04-15T15:37:36;16.50;99.90
37788;DHT22;23627;53.302;-6.362;2023-04-15T15:40:06;16.50;99.90